sensor_id;sensor_type;location;lat;lon;timestamp;temperature;humidity
37356;DHT22;48747;50.250;18.848;2023-07-20T00:00:54;19.20;99.90
37356;DHT22;48747;50.250;18.848;2023-07-20T00:03:14;19.10;99.90
37356;DHT22;48747;50.250;18.848;2023-07-20T00:05:21;19.10;99.90
37356;DHT22;48747;50.250;18.848;2023-07-20T00:07:25;19.10;99.90
37356;DHT22;48747;50.250;18.848;2023-07-20T00:09:28;19.20;99.90
37356;DHT22;48747;50.250;18.848;2023-07-20T00:11:35;19.20;99.90
37356;DHT22;48747;50.250;18.848;2023-07-20T00:13:36;19.20;99.90
37356;DHT22;48747;50.250;18.848;2023-07-20T00:15:39;19.20;99.90
37356;DHT22;48747;50.250;18.848;2023-07-20T00:17:42;19.20;99.90
37356;DHT22;48747;50.250;18.848;2023-07-20T00:19:46;19.30;99.90
37356;DHT22;48747;50.250;18.848;2023-07-20T00:21:49;19.30;99.90
37356;DHT22;48747;50.250;18.848;2023-07-20T00:23:52;19.40;99.90
37356;DHT22;48747;50.250;18.848;2023-07-20T00:25:56;19.30;99.90
37356;DHT22;48747;50.250;18.848;2023-07-20T00:27:59;19.30;99.90
37356;DHT22;48747;50.250;18.848;2023-07-20T00:30:04;19.30;99.90
37356;DHT22;48747;50.250;18.848;2023-07-20T00:32:07;19.30;99.90
37356;DHT22;48747;50.250;18.848;2023-07-20T00:34:10;19.30;99.90
37356;DHT22;48747;50.250;18.848;2023-07-20T00:36:13;19.20;99.90
37356;DHT22;48747;50.250;18.848;2023-07-20T00:38:17;19.10;99.90
37356;DHT22;48747;50.250;18.848;2023-07-20T00:40:20;19.10;99.90
37356;DHT22;48747;50.250;18.848;2023-07-20T00:42:23;19.00;99.90
37356;DHT22;48747;50.250;18.848;2023-07-20T00:44:26;18.90;99.90
37356;DHT22;48747;50.250;18.848;2023-07-20T00:46:29;18.80;99.90
37356;DHT22;48747;50.250;18.848;2023-07-20T00:48:32;18.80;99.90
37356;DHT22;48747;50.250;18.848;2023-07-20T00:50:35;18.70;99.90
37356;DHT22;48747;50.250;18.848;2023-07-20T00:52:39;18.70;99.90
37356;DHT22;48747;50.250;18.848;2023-07-20T00:54:42;18.70;99.90
37356;DHT22;48747;50.250;18.848;2023-07-20T00:56:46;18.60;99.90
37356;DHT22;48747;50.250;18.848;2023-07-20T00:58:49;18.60;99.90
37356;DHT22;48747;50.250;18.848;2023-07-20T01:00:53;18.60;99.90
37356;DHT22;48747;50.250;18.848;2023-07-20T01:02:56;18.60;99.90
37356;DHT22;48747;50.250;18.848;2023-07-20T01:04:59;18.70;99.90
37356;DHT22;48747;50.250;18.848;2023-07-20T01:09:47;18.60;99.90
37356;DHT22;48747;50.250;18.848;2023-07-20T01:12:01;18.40;99.90
37356;DHT22;48747;50.250;18.848;2023-07-20T01:13:59;18.30;99.90
37356;DHT22;48747;50.250;18.848;2023-07-20T01:16:02;18.20;99.90
37356;DHT22;48747;50.250;18.848;2023-07-20T01:18:05;18.20;99.90
37356;DHT22;48747;50.250;18.848;2023-07-20T01:20:10;18.20;99.90
37356;DHT22;48747;50.250;18.848;2023-07-20T01:22:21;18.20;99.90
37356;DHT22;48747;50.250;18.848;2023-07-20T01:29:28;18.20;99.90
37356;DHT22;48747;50.250;18.848;2023-07-20T01:31:35;18.20;99.90
37356;DHT22;48747;50.250;18.848;2023-07-20T01:33:39;18.20;99.90
37356;DHT22;48747;50.250;18.848;2023-07-20T01:35:44;18.20;99.90
37356;DHT22;48747;50.250;18.848;2023-07-20T01:37:49;18.20;99.90
37356;DHT22;48747;50.250;18.848;2023-07-20T01:39:54;18.20;99.90
37356;DHT22;48747;50.250;18.848;2023-07-20T01:41:58;18.10;99.90
37356;DHT22;48747;50.250;18.848;2023-07-20T01:44:03;18.10;99.90
37356;DHT22;48747;50.250;18.848;2023-07-20T01:46:06;18.10;99.90
37356;DHT22;48747;50.250;18.848;2023-07-20T01:48:09;18.10;99.90
37356;DHT22;48747;50.250;18.848;2023-07-20T01:50:13;18.00;99.90
37356;DHT22;48747;50.250;18.848;2023-07-20T01:52:16;18.00;99.90
37356;DHT22;48747;50.250;18.848;2023-07-20T01:54:19;17.90;99.90
37356;DHT22;48747;50.250;18.848;2023-07-20T01:56:23;17.90;99.90
37356;DHT22;48747;50.250;18.848;2023-07-20T01:58:26;17.90;99.90
37356;DHT22;48747;50.250;18.848;2023-07-20T02:00:29;17.90;99.90
37356;DHT22;48747;50.250;18.848;2023-07-20T02:02:32;18.00;99.90
37356;DHT22;48747;50.250;18.848;2023-07-20T02:04:35;18.00;99.90
37356;DHT22;48747;50.250;18.848;2023-07-20T02:06:38;18.00;99.90
37356;DHT22;48747;50.250;18.848;2023-07-20T02:08:41;18.00;99.90
37356;DHT22;48747;50.250;18.848;2023-07-20T02:10:47;17.90;99.90
37356;DHT22;48747;50.250;18.848;2023-07-20T02:12:50;17.90;99.90
37356;DHT22;48747;50.250;18.848;2023-07-20T02:14:53;17.80;99.90
37356;DHT22;48747;50.250;18.848;2023-07-20T02:16:56;17.90;99.90
37356;DHT22;48747;50.250;18.848;2023-07-20T02:19:01;17.90;99.90
37356;DHT22;48747;50.250;18.848;2023-07-20T02:21:04;17.90;99.90
37356;DHT22;48747;50.250;18.848;2023-07-20T02:23:07;17.90;99.90
37356;DHT22;48747;50.250;18.848;2023-07-20T02:25:10;17.90;99.90
37356;DHT22;48747;50.250;18.848;2023-07-20T02:27:13;17.90;99.90
37356;DHT22;48747;50.250;18.848;2023-07-20T02:29:16;17.90;99.90
37356;DHT22;48747;50.250;18.848;2023-07-20T02:31:19;17.90;99.90
37356;DHT22;48747;50.250;18.848;2023-07-20T02:33:22;17.90;99.90
37356;DHT22;48747;50.250;18.848;2023-07-20T02:35:25;17.80;99.90
37356;DHT22;48747;50.250;18.848;2023-07-20T02:37:28;17.70;99.90
37356;DHT22;48747;50.250;18.848;2023-07-20T02:39:31;17.60;99.90
37356;DHT22;48747;50.250;18.848;2023-07-20T02:41:35;17.60;99.90
37356;DHT22;48747;50.250;18.848;2023-07-20T02:43:38;17.50;99.90
37356;DHT22;48747;50.250;18.848;2023-07-20T02:45:41;17.40;99.90
37356;DHT22;48747;50.250;18.848;2023-07-20T02:47:47;17.40;99.90
37356;DHT22;48747;50.250;18.848;2023-07-20T02:49:50;17.30;99.90
37356;DHT22;48747;50.250;18.848;2023-07-20T02:51:53;17.20;99.90
37356;DHT22;48747;50.250;18.848;2023-07-20T02:53:56;17.20;99.90
37356;DHT22;48747;50.250;18.848;2023-07-20T02:55:59;17.20;99.90
37356;DHT22;48747;50.250;18.848;2023-07-20T02:58:02;17.20;99.90
37356;DHT22;48747;50.250;18.848;2023-07-20T03:00:06;17.10;99.90
37356;DHT22;48747;50.250;18.848;2023-07-20T03:02:09;17.20;99.90
37356;DHT22;48747;50.250;18.848;2023-07-20T03:04:13;17.20;99.90
37356;DHT22;48747;50.250;18.848;2023-07-20T03:06:16;17.10;99.90
37356;DHT22;48747;50.250;18.848;2023-07-20T03:08:19;17.20;99.90
37356;DHT22;48747;50.250;18.848;2023-07-20T03:10:22;17.20;99.90
37356;DHT22;48747;50.250;18.848;2023-07-20T03:12:25;17.10;99.90
37356;DHT22;48747;50.250;18.848;2023-07-20T03:14:29;17.10;99.90
37356;DHT22;48747;50.250;18.848;2023-07-20T03:16:32;17.10;99.90
37356;DHT22;48747;50.250;18.848;2023-07-20T03:18:35;17.10;99.90
37356;DHT22;48747;50.250;18.848;2023-07-20T03:20:38;17.00;99.90
37356;DHT22;48747;50.250;18.848;2023-07-20T03:22:41;17.00;99.90
37356;DHT22;48747;50.250;18.848;2023-07-20T03:24:44;17.00;99.90
37356;DHT22;48747;50.250;18.848;2023-07-20T03:26:47;17.00;99.90
37356;DHT22;48747;50.250;18.848;2023-07-20T03:28:50;17.00;99.90
37356;DHT22;48747;50.250;18.848;2023-07-20T03:30:54;17.00;99.90
37356;DHT22;48747;50.250;18.848;2023-07-20T03:32:57;17.00;99.90
37356;DHT22;48747;50.250;18.848;2023-07-20T03:35:00;16.90;99.90
37356;DHT22;48747;50.250;18.848;2023-07-20T03:37:04;17.00;99.90
37356;DHT22;48747;50.250;18.848;2023-07-20T03:39:07;17.00;99.90
37356;DHT22;48747;50.250;18.848;2023-07-20T03:41:10;16.90;99.90
37356;DHT22;48747;50.250;18.848;2023-07-20T03:43:13;16.90;99.90
37356;DHT22;48747;50.250;18.848;2023-07-20T03:45:16;16.90;99.90
37356;DHT22;48747;50.250;18.848;2023-07-20T03:47:19;16.90;99.90
37356;DHT22;48747;50.250;18.848;2023-07-20T03:49:22;16.90;99.90
37356;DHT22;48747;50.250;18.848;2023-07-20T03:51:26;16.90;99.90
37356;DHT22;48747;50.250;18.848;2023-07-20T03:53:29;16.90;99.90
37356;DHT22;48747;50.250;18.848;2023-07-20T03:55:33;16.90;99.90
37356;DHT22;48747;50.250;18.848;2023-07-20T03:57:37;16.90;99.90
37356;DHT22;48747;50.250;18.848;2023-07-20T03:59:44;17.00;99.90
37356;DHT22;48747;50.250;18.848;2023-07-20T04:01:46;17.00;99.90
37356;DHT22;48747;50.250;18.848;2023-07-20T04:03:49;16.90;99.90
37356;DHT22;48747;50.250;18.848;2023-07-20T04:05:54;17.00;99.90
37356;DHT22;48747;50.250;18.848;2023-07-20T04:07:58;17.00;99.90
37356;DHT22;48747;50.250;18.848;2023-07-20T04:10:01;17.00;99.90
37356;DHT22;48747;50.250;18.848;2023-07-20T04:12:04;17.00;99.90
37356;DHT22;48747;50.250;18.848;2023-07-20T04:14:07;17.00;99.90
37356;DHT22;48747;50.250;18.848;2023-07-20T04:16:10;17.10;99.90
37356;DHT22;48747;50.250;18.848;2023-07-20T04:18:13;17.10;99.90
37356;DHT22;48747;50.250;18.848;2023-07-20T04:20:16;17.10;99.90
37356;DHT22;48747;50.250;18.848;2023-07-20T04:22:20;17.10;99.90
37356;DHT22;48747;50.250;18.848;2023-07-20T04:24:23;17.20;99.90
37356;DHT22;48747;50.250;18.848;2023-07-20T04:26:26;17.30;99.90
37356;DHT22;48747;50.250;18.848;2023-07-20T04:28:30;17.30;99.90
37356;DHT22;48747;50.250;18.848;2023-07-20T04:30:33;17.40;99.90
37356;DHT22;48747;50.250;18.848;2023-07-20T04:32:36;17.40;99.90
37356;DHT22;48747;50.250;18.848;2023-07-20T04:34:39;17.50;99.90
37356;DHT22;48747;50.250;18.848;2023-07-20T04:36:42;17.50;99.90
37356;DHT22;48747;50.250;18.848;2023-07-20T04:38:45;17.60;99.90
37356;DHT22;48747;50.250;18.848;2023-07-20T04:40:50;17.60;99.90
37356;DHT22;48747;50.250;18.848;2023-07-20T04:42:53;17.50;99.90
37356;DHT22;48747;50.250;18.848;2023-07-20T04:44:56;17.50;99.90
37356;DHT22;48747;50.250;18.848;2023-07-20T04:46:59;17.50;99.90
37356;DHT22;48747;50.250;18.848;2023-07-20T04:49:02;17.50;99.90
37356;DHT22;48747;50.250;18.848;2023-07-20T04:51:05;17.60;99.90
37356;DHT22;48747;50.250;18.848;2023-07-20T04:53:09;17.70;99.90
37356;DHT22;48747;50.250;18.848;2023-07-20T04:55:13;17.80;99.90
37356;DHT22;48747;50.250;18.848;2023-07-20T04:57:16;17.90;99.90
37356;DHT22;48747;50.250;18.848;2023-07-20T04:59:19;18.00;99.90
37356;DHT22;48747;50.250;18.848;2023-07-20T05:01:22;18.10;99.90
37356;DHT22;48747;50.250;18.848;2023-07-20T05:03:26;18.20;99.90
37356;DHT22;48747;50.250;18.848;2023-07-20T05:05:29;18.20;99.90
37356;DHT22;48747;50.250;18.848;2023-07-20T05:07:32;18.30;99.90
37356;DHT22;48747;50.250;18.848;2023-07-20T05:09:35;18.40;99.90
37356;DHT22;48747;50.250;18.848;2023-07-20T05:11:38;18.50;99.90
37356;DHT22;48747;50.250;18.848;2023-07-20T05:13:41;18.60;99.90
37356;DHT22;48747;50.250;18.848;2023-07-20T05:15:44;18.80;99.90
37356;DHT22;48747;50.250;18.848;2023-07-20T05:17:47;19.00;99.90
37356;DHT22;48747;50.250;18.848;2023-07-20T05:19:50;19.10;99.90
37356;DHT22;48747;50.250;18.848;2023-07-20T05:21:54;19.30;99.90
37356;DHT22;48747;50.250;18.848;2023-07-20T05:23:56;19.30;99.90
37356;DHT22;48747;50.250;18.848;2023-07-20T05:26:00;19.40;99.90
37356;DHT22;48747;50.250;18.848;2023-07-20T05:28:04;19.30;99.90
37356;DHT22;48747;50.250;18.848;2023-07-20T05:30:08;19.40;99.90
37356;DHT22;48747;50.250;18.848;2023-07-20T05:32:12;19.40;99.90
37356;DHT22;48747;50.250;18.848;2023-07-20T05:34:15;19.30;99.90
37356;DHT22;48747;50.250;18.848;2023-07-20T05:36:18;19.30;99.90
37356;DHT22;48747;50.250;18.848;2023-07-20T05:38:21;19.30;99.90
37356;DHT22;48747;50.250;18.848;2023-07-20T05:40:28;19.30;99.90
37356;DHT22;48747;50.250;18.848;2023-07-20T05:42:29;19.40;99.90
37356;DHT22;48747;50.250;18.848;2023-07-20T05:44:32;19.40;99.90
37356;DHT22;48747;50.250;18.848;2023-07-20T05:46:35;19.40;99.90
37356;DHT22;48747;50.250;18.848;2023-07-20T05:48:38;19.40;99.90
37356;DHT22;48747;50.250;18.848;2023-07-20T05:50:45;19.50;99.90
37356;DHT22;48747;50.250;18.848;2023-07-20T05:52:48;19.70;99.90
37356;DHT22;48747;50.250;18.848;2023-07-20T05:54:51;19.90;99.90
37356;DHT22;48747;50.250;18.848;2023-07-20T05:56:54;20.00;99.90
37356;DHT22;48747;50.250;18.848;2023-07-20T05:58:57;20.10;99.90
37356;DHT22;48747;50.250;18.848;2023-07-20T06:01:00;20.30;99.90
37356;DHT22;48747;50.250;18.848;2023-07-20T06:03:04;20.30;99.90
37356;DHT22;48747;50.250;18.848;2023-07-20T06:05:08;20.50;99.90
37356;DHT22;48747;50.250;18.848;2023-07-20T06:07:12;20.50;99.90
37356;DHT22;48747;50.250;18.848;2023-07-20T06:09:15;20.60;99.90
37356;DHT22;48747;50.250;18.848;2023-07-20T06:11:18;20.70;99.90
37356;DHT22;48747;50.250;18.848;2023-07-20T06:13:22;20.60;99.90
37356;DHT22;48747;50.250;18.848;2023-07-20T06:15:27;20.80;99.90
37356;DHT22;48747;50.250;18.848;2023-07-20T06:17:31;20.80;99.90
37356;DHT22;48747;50.250;18.848;2023-07-20T06:19:34;20.90;99.90
37356;DHT22;48747;50.250;18.848;2023-07-20T06:21:37;21.10;99.90
37356;DHT22;48747;50.250;18.848;2023-07-20T06:23:41;21.10;99.90
37356;DHT22;48747;50.250;18.848;2023-07-20T06:25:44;21.30;99.90
37356;DHT22;48747;50.250;18.848;2023-07-20T06:27:49;21.30;99.90
37356;DHT22;48747;50.250;18.848;2023-07-20T06:29:53;21.30;99.90
37356;DHT22;48747;50.250;18.848;2023-07-20T06:31:58;21.10;99.90
37356;DHT22;48747;50.250;18.848;2023-07-20T06:34:02;20.90;99.90
37356;DHT22;48747;50.250;18.848;2023-07-20T06:36:05;21.00;99.90
37356;DHT22;48747;50.250;18.848;2023-07-20T06:38:08;20.90;99.90
37356;DHT22;48747;50.250;18.848;2023-07-20T06:40:11;20.90;99.90
37356;DHT22;48747;50.250;18.848;2023-07-20T06:42:14;21.00;99.90
37356;DHT22;48747;50.250;18.848;2023-07-20T06:44:17;20.90;99.90
37356;DHT22;48747;50.250;18.848;2023-07-20T06:46:20;20.90;99.90
37356;DHT22;48747;50.250;18.848;2023-07-20T06:48:23;20.80;99.90
37356;DHT22;48747;50.250;18.848;2023-07-20T06:50:26;20.70;99.90
37356;DHT22;48747;50.250;18.848;2023-07-20T06:52:29;20.60;99.90
37356;DHT22;48747;50.250;18.848;2023-07-20T06:54:32;20.70;99.90
37356;DHT22;48747;50.250;18.848;2023-07-20T06:56:35;21.00;99.90
37356;DHT22;48747;50.250;18.848;2023-07-20T06:58:38;21.10;99.90
37356;DHT22;48747;50.250;18.848;2023-07-20T07:00:41;21.20;99.90
37356;DHT22;48747;50.250;18.848;2023-07-20T07:02:44;21.30;99.90
37356;DHT22;48747;50.250;18.848;2023-07-20T07:04:47;21.30;99.90
37356;DHT22;48747;50.250;18.848;2023-07-20T07:06:50;21.10;99.90
37356;DHT22;48747;50.250;18.848;2023-07-20T07:08:53;21.00;99.90
37356;DHT22;48747;50.250;18.848;2023-07-20T07:10:56;21.10;99.90
37356;DHT22;48747;50.250;18.848;2023-07-20T07:12:59;21.00;99.90
37356;DHT22;48747;50.250;18.848;2023-07-20T07:15:04;21.00;99.90
37356;DHT22;48747;50.250;18.848;2023-07-20T07:17:12;20.90;99.90
37356;DHT22;48747;50.250;18.848;2023-07-20T07:19:16;20.70;99.90
37356;DHT22;48747;50.250;18.848;2023-07-20T07:21:19;20.70;99.90
37356;DHT22;48747;50.250;18.848;2023-07-20T07:23:22;20.80;99.90
37356;DHT22;48747;50.250;18.848;2023-07-20T07:25:25;21.10;99.90
37356;DHT22;48747;50.250;18.848;2023-07-20T07:27:29;21.20;99.90
37356;DHT22;48747;50.250;18.848;2023-07-20T07:29:32;21.40;99.90
37356;DHT22;48747;50.250;18.848;2023-07-20T07:31:35;21.40;99.90
37356;DHT22;48747;50.250;18.848;2023-07-20T07:33:38;21.30;99.90
37356;DHT22;48747;50.250;18.848;2023-07-20T07:35:41;21.30;99.90
37356;DHT22;48747;50.250;18.848;2023-07-20T07:37:44;21.50;99.90
37356;DHT22;48747;50.250;18.848;2023-07-20T07:39:48;21.60;99.90
37356;DHT22;48747;50.250;18.848;2023-07-20T07:41:51;22.00;99.90
37356;DHT22;48747;50.250;18.848;2023-07-20T07:43:54;22.10;99.90
37356;DHT22;48747;50.250;18.848;2023-07-20T07:45:57;22.10;99.90
37356;DHT22;48747;50.250;18.848;2023-07-20T07:48:00;21.90;99.90
37356;DHT22;48747;50.250;18.848;2023-07-20T07:50:04;21.80;99.90
37356;DHT22;48747;50.250;18.848;2023-07-20T07:52:07;21.60;99.90
37356;DHT22;48747;50.250;18.848;2023-07-20T07:54:10;21.40;99.90
37356;DHT22;48747;50.250;18.848;2023-07-20T07:56:13;21.30;99.90
37356;DHT22;48747;50.250;18.848;2023-07-20T07:58:17;21.00;99.90
37356;DHT22;48747;50.250;18.848;2023-07-20T08:00:20;20.90;99.90
37356;DHT22;48747;50.250;18.848;2023-07-20T08:02:23;21.00;99.90
37356;DHT22;48747;50.250;18.848;2023-07-20T08:04:26;21.20;99.90
37356;DHT22;48747;50.250;18.848;2023-07-20T08:06:29;21.30;99.90
37356;DHT22;48747;50.250;18.848;2023-07-20T08:08:33;21.40;99.90
37356;DHT22;48747;50.250;18.848;2023-07-20T08:10:37;21.70;99.90
37356;DHT22;48747;50.250;18.848;2023-07-20T08:12:40;21.90;99.90
37356;DHT22;48747;50.250;18.848;2023-07-20T08:14:43;21.80;99.90
37356;DHT22;48747;50.250;18.848;2023-07-20T08:16:46;21.80;99.90
37356;DHT22;48747;50.250;18.848;2023-07-20T08:18:49;21.60;99.90
37356;DHT22;48747;50.250;18.848;2023-07-20T08:20:52;21.40;99.90
37356;DHT22;48747;50.250;18.848;2023-07-20T08:22:55;21.60;99.90
37356;DHT22;48747;50.250;18.848;2023-07-20T08:25:03;21.70;99.90
37356;DHT22;48747;50.250;18.848;2023-07-20T08:27:06;21.90;99.90
37356;DHT22;48747;50.250;18.848;2023-07-20T08:29:10;22.00;99.90
37356;DHT22;48747;50.250;18.848;2023-07-20T08:31:14;22.10;99.90
37356;DHT22;48747;50.250;18.848;2023-07-20T08:33:18;21.80;99.90
37356;DHT22;48747;50.250;18.848;2023-07-20T08:35:29;21.90;99.90
37356;DHT22;48747;50.250;18.848;2023-07-20T08:37:34;21.90;99.90
37356;DHT22;48747;50.250;18.848;2023-07-20T08:39:43;21.90;99.90
37356;DHT22;48747;50.250;18.848;2023-07-20T08:41:46;22.00;99.90
37356;DHT22;48747;50.250;18.848;2023-07-20T08:43:53;22.10;99.90
37356;DHT22;48747;50.250;18.848;2023-07-20T08:45:57;22.20;99.90
37356;DHT22;48747;50.250;18.848;2023-07-20T08:48:01;22.40;99.90
37356;DHT22;48747;50.250;18.848;2023-07-20T08:50:05;22.70;99.90
37356;DHT22;48747;50.250;18.848;2023-07-20T08:52:12;22.80;99.90
37356;DHT22;48747;50.250;18.848;2023-07-20T08:54:18;22.90;99.90
37356;DHT22;48747;50.250;18.848;2023-07-20T08:56:20;22.70;99.90
37356;DHT22;48747;50.250;18.848;2023-07-20T08:58:26;22.80;99.90
37356;DHT22;48747;50.250;18.848;2023-07-20T09:00:30;22.60;99.90
37356;DHT22;48747;50.250;18.848;2023-07-20T09:02:36;22.50;99.90
37356;DHT22;48747;50.250;18.848;2023-07-20T09:04:41;22.50;99.90
37356;DHT22;48747;50.250;18.848;2023-07-20T09:06:45;22.60;99.90
37356;DHT22;48747;50.250;18.848;2023-07-20T09:08:49;22.40;99.90
37356;DHT22;48747;50.250;18.848;2023-07-20T09:10:52;22.50;99.90
37356;DHT22;48747;50.250;18.848;2023-07-20T09:12:55;22.60;99.90
37356;DHT22;48747;50.250;18.848;2023-07-20T09:15:00;22.60;99.90
37356;DHT22;48747;50.250;18.848;2023-07-20T09:17:03;22.70;99.90
37356;DHT22;48747;50.250;18.848;2023-07-20T09:19:06;22.60;99.90
37356;DHT22;48747;50.250;18.848;2023-07-20T09:21:09;22.90;99.90
37356;DHT22;48747;50.250;18.848;2023-07-20T09:23:12;23.20;99.90
37356;DHT22;48747;50.250;18.848;2023-07-20T09:25:17;23.40;99.90
37356;DHT22;48747;50.250;18.848;2023-07-20T09:27:22;23.80;99.10
37356;DHT22;48747;50.250;18.848;2023-07-20T09:29:25;24.00;97.10
37356;DHT22;48747;50.250;18.848;2023-07-20T09:31:28;24.10;96.00
37356;DHT22;48747;50.250;18.848;2023-07-20T09:33:31;23.80;95.70
37356;DHT22;48747;50.250;18.848;2023-07-20T09:35:34;23.40;96.00
37356;DHT22;48747;50.250;18.848;2023-07-20T09:37:37;23.00;97.10
37356;DHT22;48747;50.250;18.848;2023-07-20T09:39:45;22.70;98.40
37356;DHT22;48747;50.250;18.848;2023-07-20T09:41:48;22.40;99.90
37356;DHT22;48747;50.250;18.848;2023-07-20T09:43:51;22.20;99.90
37356;DHT22;48747;50.250;18.848;2023-07-20T09:45:58;22.10;99.90
37356;DHT22;48747;50.250;18.848;2023-07-20T09:48:08;22.20;99.90
37356;DHT22;48747;50.250;18.848;2023-07-20T09:50:11;22.30;99.90
37356;DHT22;48747;50.250;18.848;2023-07-20T09:52:15;22.50;99.90
37356;DHT22;48747;50.250;18.848;2023-07-20T09:54:20;22.70;99.40
37356;DHT22;48747;50.250;18.848;2023-07-20T09:56:28;22.70;99.20
37356;DHT22;48747;50.250;18.848;2023-07-20T09:58:31;22.90;99.30
37356;DHT22;48747;50.250;18.848;2023-07-20T10:00:37;23.10;98.70
37356;DHT22;48747;50.250;18.848;2023-07-20T10:02:43;23.10;97.40
37356;DHT22;48747;50.250;18.848;2023-07-20T10:04:47;23.20;97.30
37356;DHT22;48747;50.250;18.848;2023-07-20T10:06:53;23.30;96.40
37356;DHT22;48747;50.250;18.848;2023-07-20T10:09:00;23.20;95.90
37356;DHT22;48747;50.250;18.848;2023-07-20T10:11:06;23.10;92.20
37356;DHT22;48747;50.250;18.848;2023-07-20T10:13:23;23.20;94.20
37356;DHT22;48747;50.250;18.848;2023-07-20T10:15:29;23.40;94.90
37356;DHT22;48747;50.250;18.848;2023-07-20T10:17:32;23.70;94.10
37356;DHT22;48747;50.250;18.848;2023-07-20T10:19:42;23.90;92.60
37356;DHT22;48747;50.250;18.848;2023-07-20T10:21:47;24.00;90.80
37356;DHT22;48747;50.250;18.848;2023-07-20T10:23:50;23.90;90.40
37356;DHT22;48747;50.250;18.848;2023-07-20T10:25:54;23.80;87.30
37356;DHT22;48747;50.250;18.848;2023-07-20T10:27:57;23.70;89.50
37356;DHT22;48747;50.250;18.848;2023-07-20T10:30:00;23.70;88.70
37356;DHT22;48747;50.250;18.848;2023-07-20T10:32:05;23.80;90.60
37356;DHT22;48747;50.250;18.848;2023-07-20T10:34:08;24.10;91.30
37356;DHT22;48747;50.250;18.848;2023-07-20T10:36:11;24.20;84.00
37356;DHT22;48747;50.250;18.848;2023-07-20T10:38:14;24.20;83.50
37356;DHT22;48747;50.250;18.848;2023-07-20T10:40:38;24.10;79.00
37356;DHT22;48747;50.250;18.848;2023-07-20T10:42:42;24.10;81.00
37356;DHT22;48747;50.250;18.848;2023-07-20T10:44:45;24.10;80.90
37356;DHT22;48747;50.250;18.848;2023-07-20T10:46:49;24.20;78.70
37356;DHT22;48747;50.250;18.848;2023-07-20T10:49:03;24.00;76.10
37356;DHT22;48747;50.250;18.848;2023-07-20T10:51:22;23.90;77.40
37356;DHT22;48747;50.250;18.848;2023-07-20T10:53:24;23.90;77.40
37356;DHT22;48747;50.250;18.848;2023-07-20T10:55:27;23.80;77.50
37356;DHT22;48747;50.250;18.848;2023-07-20T10:57:31;23.90;77.80
37356;DHT22;48747;50.250;18.848;2023-07-20T10:59:36;23.90;76.90
37356;DHT22;48747;50.250;18.848;2023-07-20T11:01:42;23.90;73.70
37356;DHT22;48747;50.250;18.848;2023-07-20T11:03:50;24.10;74.10
37356;DHT22;48747;50.250;18.848;2023-07-20T11:05:53;24.10;71.60
37356;DHT22;48747;50.250;18.848;2023-07-20T11:07:56;24.30;72.40
37356;DHT22;48747;50.250;18.848;2023-07-20T11:10:12;24.50;73.50
37356;DHT22;48747;50.250;18.848;2023-07-20T11:12:12;24.60;73.10
37356;DHT22;48747;50.250;18.848;2023-07-20T11:14:22;24.70;72.00
37356;DHT22;48747;50.250;18.848;2023-07-20T11:16:44;24.70;71.70
37356;DHT22;48747;50.250;18.848;2023-07-20T11:18:47;24.80;71.20
37356;DHT22;48747;50.250;18.848;2023-07-20T11:20:51;25.00;72.00
37356;DHT22;48747;50.250;18.848;2023-07-20T11:22:57;25.10;69.20
37356;DHT22;48747;50.250;18.848;2023-07-20T11:25:00;25.10;69.90
37356;DHT22;48747;50.250;18.848;2023-07-20T11:27:03;24.90;70.50
37356;DHT22;48747;50.250;18.848;2023-07-20T11:29:07;24.70;71.20
37356;DHT22;48747;50.250;18.848;2023-07-20T11:31:10;24.70;70.90
37356;DHT22;48747;50.250;18.848;2023-07-20T11:33:16;24.70;72.40
37356;DHT22;48747;50.250;18.848;2023-07-20T11:35:19;24.90;70.00
37356;DHT22;48747;50.250;18.848;2023-07-20T11:37:23;25.30;73.00
37356;DHT22;48747;50.250;18.848;2023-07-20T11:39:26;25.60;68.10
37356;DHT22;48747;50.250;18.848;2023-07-20T11:41:30;25.60;67.20
37356;DHT22;48747;50.250;18.848;2023-07-20T11:43:34;25.70;68.40
37356;DHT22;48747;50.250;18.848;2023-07-20T11:45:39;25.80;69.20
37356;DHT22;48747;50.250;18.848;2023-07-20T11:47:43;25.80;68.10
37356;DHT22;48747;50.250;18.848;2023-07-20T11:49:46;25.70;66.80
37356;DHT22;48747;50.250;18.848;2023-07-20T11:51:50;25.30;67.50
37356;DHT22;48747;50.250;18.848;2023-07-20T11:53:53;25.10;69.20
37356;DHT22;48747;50.250;18.848;2023-07-20T11:55:57;24.80;68.30
37356;DHT22;48747;50.250;18.848;2023-07-20T11:58:07;24.70;70.40
37356;DHT22;48747;50.250;18.848;2023-07-20T12:00:11;24.80;70.00
37356;DHT22;48747;50.250;18.848;2023-07-20T12:02:14;25.00;71.10
37356;DHT22;48747;50.250;18.848;2023-07-20T12:04:17;25.10;68.80
37356;DHT22;48747;50.250;18.848;2023-07-20T12:06:23;25.00;66.50
37356;DHT22;48747;50.250;18.848;2023-07-20T12:08:27;25.10;67.80
37356;DHT22;48747;50.250;18.848;2023-07-20T12:10:30;25.10;68.40
37356;DHT22;48747;50.250;18.848;2023-07-20T12:12:34;25.10;68.00
37356;DHT22;48747;50.250;18.848;2023-07-20T12:14:37;24.90;67.70
37356;DHT22;48747;50.250;18.848;2023-07-20T12:16:40;24.90;71.20
37356;DHT22;48747;50.250;18.848;2023-07-20T12:18:43;25.10;67.60
37356;DHT22;48747;50.250;18.848;2023-07-20T12:20:58;25.10;66.40
37356;DHT22;48747;50.250;18.848;2023-07-20T12:22:52;25.00;67.10
37356;DHT22;48747;50.250;18.848;2023-07-20T12:24:56;25.10;69.30
37356;DHT22;48747;50.250;18.848;2023-07-20T12:26:59;25.10;66.40
37356;DHT22;48747;50.250;18.848;2023-07-20T12:29:02;25.20;65.40
37356;DHT22;48747;50.250;18.848;2023-07-20T12:31:08;25.50;65.80
37356;DHT22;48747;50.250;18.848;2023-07-20T12:33:13;25.70;64.30
37356;DHT22;48747;50.250;18.848;2023-07-20T12:35:19;25.70;64.30
37356;DHT22;48747;50.250;18.848;2023-07-20T12:37:22;25.70;63.50
37356;DHT22;48747;50.250;18.848;2023-07-20T12:39:25;25.70;63.70
37356;DHT22;48747;50.250;18.848;2023-07-20T12:41:28;25.60;63.60
37356;DHT22;48747;50.250;18.848;2023-07-20T12:43:31;25.60;64.30
37356;DHT22;48747;50.250;18.848;2023-07-20T12:45:37;25.60;64.90
37356;DHT22;48747;50.250;18.848;2023-07-20T12:47:43;25.70;64.80
37356;DHT22;48747;50.250;18.848;2023-07-20T12:49:46;25.80;65.20
37356;DHT22;48747;50.250;18.848;2023-07-20T12:51:49;25.70;64.40
37356;DHT22;48747;50.250;18.848;2023-07-20T12:53:53;25.50;63.30
37356;DHT22;48747;50.250;18.848;2023-07-20T12:55:56;25.30;62.30
37356;DHT22;48747;50.250;18.848;2023-07-20T12:57:59;25.20;63.20